Sharpsburg, Illinois
Current Conditions -  °F | °C
As of 8:15 AM on Thursday 29 Jan 2015 (Local Time) from KTAZ Reporting Station
Haze Haze  
Wind Chill: 25°   Ceiling: 1200
Heat Index: 36°   Visibility: 5mi
Dew Point: 34°   Wind: 21mph
Humidity: 93%   Direction: 290°WNW
Pressure: 29.96"   Gusts: 29mph
Location:  39.5521°N, 89.3216°W
Report Text: KTAZ 291415Z AUTO 29018G25KT 5SM BR OVC012 02/01 A2996 RMK AO2
Loading
Personal Weather Stations






























Interactive Weather Map New forecast layout! Learn more

10-Day Weather Forecast

Advertisements
Track Severe Weather on mobile